VTK43G DNPO-FTTJ
Flight info
| Callsign | VTK43G |
|---|---|
| Flight time | 1h 39m |
| Altitude | 33000 |
| Route | ETVUN1S ETVUN UH206 JOS UG626 MIU UG660 KELAK KELAK1M |
| Aircraft | A306/H-SDE3FGHIRWY/LB1 |
Departure
| Time | 2026-04-26 15:43 |
|---|---|
| Airport | Port Harcourt International Airport (DNPO) |
Arrival
| Time | 2026-04-26 17:23 |
|---|---|
| Airport | N'Djamena International Airport (FTTJ) |
| Time | Latitude | Longitude | Altitude | Speed | Heading |
|---|---|---|---|---|---|
| 2026-04-26 15:07 | 5.00934 | 6.94997 | 64 ft | 0 kts | 28° |
| 2026-04-26 15:17 | 5.00929 | 6.94994 | 70 ft | 2 kts | 30° |
| 2026-04-26 15:18 | 5.00914 | 6.94986 | 67 ft | 2 kts | 30° |
| 2026-04-26 15:18 | 5.00900 | 6.94977 | 68 ft | 2 kts | 33° |
| 2026-04-26 15:18 | 5.00887 | 6.94967 | 68 ft | 2 kts | 46° |
| 2026-04-26 15:18 | 5.00882 | 6.94953 | 68 ft | 2 kts | 122° |
| 2026-04-26 15:19 | 5.00890 | 6.94939 | 68 ft | 2 kts | 120° |
| 2026-04-26 15:19 | 5.00899 | 6.94924 | 69 ft | 2 kts | 120° |
| 2026-04-26 15:19 | 5.00907 | 6.94910 | 67 ft | 2 kts | 120° |
| 2026-04-26 15:19 | 5.00916 | 6.94896 | 70 ft | 2 kts | 110° |
| 2026-04-26 15:20 | 5.00916 | 6.94879 | 68 ft | 2 kts | 77° |
| 2026-04-26 15:20 | 5.00911 | 6.94864 | 70 ft | 2 kts | 69° |
| 2026-04-26 15:20 | 5.00905 | 6.94848 | 72 ft | 2 kts | 60° |
| 2026-04-26 15:20 | 5.00896 | 6.94836 | 71 ft | 1 kts | 45° |
| 2026-04-26 15:21 | 5.00894 | 6.94833 | 68 ft | 0 kts | 36° |
| 2026-04-26 15:23 | 5.00906 | 6.94841 | 72 ft | 7 kts | 31° |
| 2026-04-26 15:23 | 5.00982 | 6.94882 | 70 ft | 17 kts | 28° |
| 2026-04-26 15:24 | 5.01093 | 6.94941 | 70 ft | 17 kts | 28° |
| 2026-04-26 15:24 | 5.01190 | 6.94992 | 73 ft | 17 kts | 27° |
| 2026-04-26 15:24 | 5.01307 | 6.95055 | 73 ft | 21 kts | 28° |
| 2026-04-26 15:24 | 5.01445 | 6.95130 | 72 ft | 24 kts | 28° |
| 2026-04-26 15:25 | 5.01596 | 6.95210 | 75 ft | 26 kts | 28° |
| 2026-04-26 15:25 | 5.01751 | 6.95293 | 81 ft | 27 kts | 29° |
| 2026-04-26 15:29 | 5.02001 | 6.95428 | 77 ft | 23 kts | 28° |
| 2026-04-26 15:30 | 5.02249 | 6.95560 | 78 ft | 18 kts | 28° |
| 2026-04-26 15:30 | 5.02356 | 6.95619 | 76 ft | 18 kts | 29° |
| 2026-04-26 15:30 | 5.02422 | 6.95655 | 77 ft | 16 kts | 28° |
| 2026-04-26 15:31 | 5.02462 | 6.95675 | 78 ft | 14 kts | 27° |
| 2026-04-26 15:32 | 5.02607 | 6.95740 | 78 ft | 14 kts | 2° |
| 2026-04-26 15:32 | 5.02675 | 6.95694 | 76 ft | 13 kts | 300° |
| 2026-04-26 15:40 | 5.02711 | 6.95630 | 77 ft | 11 kts | 302° |
| 2026-04-26 15:41 | 5.02705 | 6.95572 | 77 ft | 8 kts | 232° |
| 2026-04-26 15:41 | 5.02678 | 6.95553 | 76 ft | 0 kts | 207° |
| 2026-04-26 15:42 | 5.02631 | 6.95527 | 75 ft | 28 kts | 208° |
| 2026-04-26 15:42 | 5.02234 | 6.95318 | 78 ft | 101 kts | 207° |
| 2026-04-26 15:43 | 5.01406 | 6.94878 | 79 ft | 167 kts | 207° |
| 2026-04-26 15:43 | 5.00248 | 6.94270 | 519 ft | 209 kts | 207° |
| 2026-04-26 15:43 | 4.97265 | 6.92927 | 1023 ft | 245 kts | 191° |
| 2026-04-26 15:44 | 4.95544 | 6.92914 | 1104 ft | 253 kts | 168° |
| 2026-04-26 15:44 | 4.92767 | 6.95054 | 1892 ft | 261 kts | 118° |
| 2026-04-26 15:44 | 4.92311 | 6.96782 | 2510 ft | 265 kts | 92° |
| 2026-04-26 15:45 | 4.93732 | 7.00050 | 4078 ft | 245 kts | 42° |
| 2026-04-26 15:45 | 4.94856 | 7.01186 | 5461 ft | 222 kts | 55° |
| 2026-04-26 15:46 | 4.96712 | 7.03900 | 6460 ft | 258 kts | 55° |
| 2026-04-26 15:46 | 4.97824 | 7.05425 | 6700 ft | 283 kts | 53° |
| 2026-04-26 15:46 | 4.99060 | 7.07056 | 7011 ft | 304 kts | 53° |
| 2026-04-26 15:46 | 4.99951 | 7.08212 | 7202 ft | 316 kts | 52° |
| 2026-04-26 15:47 | 5.01811 | 7.10601 | 7576 ft | 338 kts | 52° |
| 2026-04-26 15:47 | 5.04848 | 7.14475 | 8091 ft | 366 kts | 52° |
| 2026-04-26 15:47 | 5.06443 | 7.16504 | 8480 ft | 374 kts | 52° |
| 2026-04-26 15:48 | 5.08064 | 7.18567 | 8984 ft | 378 kts | 52° |
| 2026-04-26 15:48 | 5.09697 | 7.20645 | 9502 ft | 381 kts | 52° |
| 2026-04-26 15:48 | 5.11349 | 7.22748 | 10003 ft | 384 kts | 52° |
| 2026-04-26 15:48 | 5.12992 | 7.24838 | 10474 ft | 387 kts | 52° |
| 2026-04-26 15:49 | 5.14876 | 7.26782 | 10938 ft | 392 kts | 37° |
| 2026-04-26 15:49 | 5.17322 | 7.27978 | 11443 ft | 396 kts | 17° |
| 2026-04-26 15:49 | 5.20060 | 7.28276 | 11958 ft | 399 kts | 359° |
| 2026-04-26 15:49 | 5.22847 | 7.28138 | 12461 ft | 402 kts | 358° |
| 2026-04-26 15:50 | 5.25664 | 7.28037 | 12952 ft | 405 kts | 360° |
| 2026-04-26 15:50 | 5.28489 | 7.28015 | 13443 ft | 408 kts | 1° |
| 2026-04-26 15:50 | 5.31339 | 7.28046 | 13897 ft | 411 kts | 2° |
| 2026-04-26 15:50 | 5.34205 | 7.28108 | 14306 ft | 414 kts | 2° |
| 2026-04-26 15:51 | 5.37095 | 7.28187 | 14732 ft | 416 kts | 2° |
| 2026-04-26 15:51 | 5.39997 | 7.28276 | 15160 ft | 419 kts | 3° |
| 2026-04-26 15:51 | 5.42925 | 7.28371 | 15586 ft | 422 kts | 3° |
| 2026-04-26 15:51 | 5.45868 | 7.28469 | 15997 ft | 424 kts | 3° |
| 2026-04-26 15:52 | 5.48833 | 7.28569 | 16393 ft | 427 kts | 3° |
| 2026-04-26 15:52 | 5.51774 | 7.28670 | 16773 ft | 430 kts | 3° |
| 2026-04-26 15:52 | 5.54775 | 7.28773 | 17153 ft | 433 kts | 3° |
| 2026-04-26 15:52 | 5.56809 | 7.28843 | 17410 ft | 434 kts | 3° |
| 2026-04-26 15:53 | 5.60829 | 7.28979 | 17898 ft | 437 kts | 3° |
| 2026-04-26 15:53 | 5.63884 | 7.29084 | 18237 ft | 440 kts | 4° |
| 2026-04-26 15:53 | 5.66954 | 7.29189 | 18529 ft | 442 kts | 3° |
| 2026-04-26 15:53 | 5.70035 | 7.29296 | 18820 ft | 444 kts | 3° |
| 2026-04-26 15:54 | 5.73126 | 7.29403 | 19099 ft | 446 kts | 3° |
| 2026-04-26 15:54 | 5.76240 | 7.29520 | 19369 ft | 448 kts | 4° |
| 2026-04-26 15:54 | 5.79338 | 7.29886 | 19636 ft | 449 kts | 12° |
| 2026-04-26 15:54 | 5.82344 | 7.30734 | 19908 ft | 449 kts | 20° |
| 2026-04-26 15:55 | 5.85222 | 7.31867 | 20163 ft | 450 kts | 24° |
| 2026-04-26 15:55 | 5.88105 | 7.33137 | 20413 ft | 452 kts | 25° |
| 2026-04-26 15:55 | 5.90969 | 7.34463 | 20672 ft | 454 kts | 26° |
| 2026-04-26 15:55 | 5.93837 | 7.35807 | 20906 ft | 456 kts | 26° |
| 2026-04-26 15:56 | 5.96733 | 7.37159 | 21149 ft | 458 kts | 26° |
| 2026-04-26 15:56 | 5.99640 | 7.38502 | 21391 ft | 460 kts | 25° |
| 2026-04-26 15:56 | 6.02558 | 7.39837 | 21620 ft | 462 kts | 25° |
| 2026-04-26 15:56 | 6.05503 | 7.41172 | 21860 ft | 464 kts | 25° |
| 2026-04-26 15:57 | 6.08454 | 7.42493 | 22073 ft | 466 kts | 25° |
| 2026-04-26 15:57 | 6.11424 | 7.43811 | 22293 ft | 467 kts | 24° |
| 2026-04-26 15:57 | 6.14408 | 7.45134 | 22507 ft | 469 kts | 25° |
| 2026-04-26 15:57 | 6.16393 | 7.46014 | 22665 ft | 470 kts | 25° |
| 2026-04-26 15:58 | 6.20367 | 7.47778 | 22931 ft | 472 kts | 25° |
| 2026-04-26 15:58 | 6.23380 | 7.49116 | 23154 ft | 474 kts | 24° |
| 2026-04-26 15:58 | 6.26408 | 7.50462 | 23355 ft | 475 kts | 24° |
| 2026-04-26 15:58 | 6.29435 | 7.51808 | 23531 ft | 477 kts | 25° |
| 2026-04-26 15:59 | 6.32467 | 7.53158 | 23691 ft | 478 kts | 25° |
| 2026-04-26 15:59 | 6.35512 | 7.54514 | 23868 ft | 479 kts | 24° |
| 2026-04-26 15:59 | 6.38562 | 7.55873 | 24022 ft | 480 kts | 25° |
| 2026-04-26 15:59 | 6.41626 | 7.57238 | 24190 ft | 481 kts | 25° |
| 2026-04-26 16:00 | 6.44693 | 7.58605 | 24346 ft | 482 kts | 25° |
| 2026-04-26 16:00 | 6.47769 | 7.59859 | 24495 ft | 484 kts | 20° |
| 2026-04-26 16:00 | 6.50989 | 7.60872 | 24659 ft | 485 kts | 17° |
| 2026-04-26 16:00 | 6.54245 | 7.61813 | 24805 ft | 487 kts | 16° |
| 2026-04-26 16:01 | 6.57521 | 7.62712 | 24931 ft | 488 kts | 15° |
| 2026-04-26 16:01 | 6.60813 | 7.63593 | 25082 ft | 489 kts | 15° |
| 2026-04-26 16:01 | 6.64112 | 7.64468 | 25231 ft | 490 kts | 15° |
| 2026-04-26 16:01 | 6.67416 | 7.65345 | 25374 ft | 491 kts | 15° |
| 2026-04-26 16:02 | 6.70725 | 7.66228 | 25517 ft | 492 kts | 15° |
| 2026-04-26 16:02 | 6.74044 | 7.67117 | 25652 ft | 494 kts | 15° |
| 2026-04-26 16:02 | 6.77374 | 7.68014 | 25797 ft | 494 kts | 15° |
| 2026-04-26 16:02 | 6.79575 | 7.68607 | 25887 ft | 495 kts | 15° |
| 2026-04-26 16:03 | 6.84033 | 7.69811 | 26065 ft | 496 kts | 15° |
| 2026-04-26 16:03 | 6.87376 | 7.70713 | 26188 ft | 497 kts | 15° |
| 2026-04-26 16:03 | 6.90722 | 7.71617 | 26317 ft | 498 kts | 15° |
| 2026-04-26 16:03 | 6.94032 | 7.72510 | 26432 ft | 499 kts | 15° |
| 2026-04-26 16:04 | 6.97389 | 7.73417 | 26563 ft | 500 kts | 15° |
| 2026-04-26 16:04 | 7.00764 | 7.74330 | 26678 ft | 501 kts | 15° |
| 2026-04-26 16:04 | 7.04128 | 7.75260 | 26822 ft | 501 kts | 16° |
| 2026-04-26 16:04 | 7.07491 | 7.76203 | 26980 ft | 501 kts | 16° |
| 2026-04-26 16:05 | 7.10851 | 7.77151 | 27122 ft | 502 kts | 16° |
| 2026-04-26 16:05 | 7.14214 | 7.78101 | 27288 ft | 502 kts | 16° |
| 2026-04-26 16:05 | 7.17582 | 7.79052 | 27465 ft | 501 kts | 16° |
| 2026-04-26 16:05 | 7.20944 | 7.79999 | 27648 ft | 501 kts | 16° |
| 2026-04-26 16:06 | 7.24308 | 7.80947 | 27812 ft | 501 kts | 16° |
| 2026-04-26 16:06 | 7.27666 | 7.81892 | 28003 ft | 501 kts | 16° |
| 2026-04-26 16:06 | 7.31023 | 7.82836 | 28165 ft | 501 kts | 15° |
| 2026-04-26 16:06 | 7.33251 | 7.83462 | 28286 ft | 501 kts | 15° |
| 2026-04-26 16:07 | 7.36616 | 7.84409 | 28465 ft | 502 kts | 15° |
| 2026-04-26 16:07 | 7.39975 | 7.85354 | 28652 ft | 502 kts | 15° |
| 2026-04-26 16:07 | 7.44440 | 7.86593 | 28880 ft | 502 kts | 15° |
| 2026-04-26 16:07 | 7.47832 | 7.87503 | 29072 ft | 502 kts | 15° |
| 2026-04-26 16:08 | 7.50073 | 7.88096 | 29193 ft | 502 kts | 14° |
| 2026-04-26 16:08 | 7.53456 | 7.88986 | 29377 ft | 503 kts | 14° |
| 2026-04-26 16:08 | 7.56848 | 7.89878 | 29581 ft | 502 kts | 14° |
| 2026-04-26 16:08 | 7.60238 | 7.90770 | 29798 ft | 502 kts | 14° |
| 2026-04-26 16:09 | 7.63617 | 7.91662 | 29989 ft | 502 kts | 14° |
| 2026-04-26 16:09 | 7.66992 | 7.92555 | 30179 ft | 501 kts | 14° |
| 2026-04-26 16:09 | 7.70365 | 7.93449 | 30379 ft | 500 kts | 14° |
| 2026-04-26 16:09 | 7.73730 | 7.94343 | 30590 ft | 500 kts | 14° |
| 2026-04-26 16:10 | 7.77047 | 7.95224 | 30784 ft | 499 kts | 14° |
| 2026-04-26 16:10 | 7.80402 | 7.96115 | 30985 ft | 499 kts | 14° |
| 2026-04-26 16:10 | 7.83763 | 7.97009 | 31201 ft | 498 kts | 14° |
| 2026-04-26 16:10 | 7.87109 | 7.97898 | 31409 ft | 497 kts | 14° |
| 2026-04-26 16:11 | 7.90459 | 7.98788 | 31623 ft | 496 kts | 14° |
| 2026-04-26 16:11 | 7.93797 | 7.99675 | 31831 ft | 496 kts | 14° |
| 2026-04-26 16:11 | 7.97136 | 8.00562 | 32047 ft | 495 kts | 14° |
| 2026-04-26 16:11 | 8.00468 | 8.01447 | 32246 ft | 494 kts | 14° |
| 2026-04-26 16:12 | 8.03754 | 8.02321 | 32464 ft | 494 kts | 14° |
| 2026-04-26 16:12 | 8.07073 | 8.03203 | 32686 ft | 493 kts | 14° |
| 2026-04-26 16:12 | 8.13388 | 8.04883 | 32832 ft | 487 kts | 14° |
| 2026-04-26 16:15 | 8.18809 | 8.06325 | 32835 ft | 483 kts | 14° |
| 2026-04-26 16:15 | 8.25032 | 8.08851 | 32845 ft | 483 kts | 26° |
| 2026-04-26 16:16 | 8.33911 | 8.13680 | 32844 ft | 484 kts | 28° |
| 2026-04-26 16:16 | 8.39804 | 8.16995 | 32843 ft | 484 kts | 28° |
| 2026-04-26 16:17 | 8.45697 | 8.20293 | 32839 ft | 484 kts | 28° |
| 2026-04-26 16:17 | 8.51601 | 8.23582 | 32844 ft | 484 kts | 28° |
| 2026-04-26 16:18 | 8.60470 | 8.28494 | 32844 ft | 485 kts | 28° |
| 2026-04-26 16:19 | 8.69376 | 8.33265 | 32849 ft | 485 kts | 27° |
| 2026-04-26 16:20 | 8.78338 | 8.38055 | 32854 ft | 485 kts | 27° |
| 2026-04-26 16:20 | 8.87288 | 8.42859 | 32858 ft | 485 kts | 27° |
| 2026-04-26 16:21 | 8.93259 | 8.46065 | 32861 ft | 485 kts | 27° |
| 2026-04-26 16:21 | 8.99191 | 8.49253 | 32869 ft | 485 kts | 27° |
| 2026-04-26 16:22 | 9.05155 | 8.52459 | 32873 ft | 485 kts | 27° |
| 2026-04-26 16:22 | 9.11122 | 8.55666 | 32878 ft | 485 kts | 27° |
| 2026-04-26 16:23 | 9.17087 | 8.58875 | 32888 ft | 485 kts | 27° |
| 2026-04-26 16:23 | 9.23053 | 8.62084 | 32892 ft | 485 kts | 27° |
| 2026-04-26 16:24 | 9.28939 | 8.65252 | 32898 ft | 485 kts | 27° |
| 2026-04-26 16:24 | 9.34906 | 8.68465 | 32905 ft | 485 kts | 28° |
| 2026-04-26 16:25 | 9.40867 | 8.71675 | 32907 ft | 485 kts | 27° |
| 2026-04-26 16:25 | 9.46839 | 8.74893 | 32908 ft | 485 kts | 27° |
| 2026-04-26 16:26 | 9.52774 | 8.78093 | 32910 ft | 486 kts | 27° |
| 2026-04-26 16:26 | 9.58753 | 8.81320 | 32907 ft | 487 kts | 28° |
| 2026-04-26 16:27 | 9.64126 | 8.85471 | 32903 ft | 487 kts | 47° |
| 2026-04-26 16:27 | 9.67961 | 8.91105 | 32897 ft | 486 kts | 60° |
| 2026-04-26 16:28 | 9.71193 | 8.97088 | 32889 ft | 487 kts | 62° |
| 2026-04-26 16:28 | 9.74356 | 9.03160 | 32885 ft | 487 kts | 62° |
| 2026-04-26 16:29 | 9.77553 | 9.09236 | 32874 ft | 488 kts | 62° |
| 2026-04-26 16:29 | 9.80773 | 9.15291 | 32869 ft | 488 kts | 62° |
| 2026-04-26 16:30 | 9.84002 | 9.21347 | 32861 ft | 488 kts | 62° |
| 2026-04-26 16:30 | 9.87228 | 9.27404 | 32854 ft | 488 kts | 62° |
| 2026-04-26 16:31 | 9.90459 | 9.33459 | 32847 ft | 488 kts | 62° |
| 2026-04-26 16:31 | 9.93698 | 9.39525 | 32836 ft | 488 kts | 62° |
| 2026-04-26 16:32 | 9.96388 | 9.44568 | 32836 ft | 489 kts | 62° |
| 2026-04-26 16:32 | 10.00141 | 9.51611 | 32829 ft | 488 kts | 62° |
| 2026-04-26 16:33 | 10.03370 | 9.57673 | 32820 ft | 488 kts | 62° |
| 2026-04-26 16:33 | 10.06597 | 9.63735 | 32823 ft | 487 kts | 62° |
| 2026-04-26 16:34 | 10.09814 | 9.69784 | 32817 ft | 487 kts | 62° |
| 2026-04-26 16:34 | 10.13035 | 9.75841 | 32818 ft | 487 kts | 62° |
| 2026-04-26 16:35 | 10.16233 | 9.81859 | 32812 ft | 487 kts | 62° |
| 2026-04-26 16:35 | 10.19468 | 9.87947 | 32809 ft | 487 kts | 62° |
| 2026-04-26 16:36 | 10.22660 | 9.93960 | 32812 ft | 487 kts | 62° |
| 2026-04-26 16:36 | 10.25872 | 10.00014 | 32803 ft | 487 kts | 62° |
| 2026-04-26 16:37 | 10.29084 | 10.06069 | 32804 ft | 487 kts | 62° |
| 2026-04-26 16:37 | 10.32302 | 10.12141 | 32800 ft | 487 kts | 62° |
| 2026-04-26 16:38 | 10.35492 | 10.18162 | 32797 ft | 487 kts | 62° |
| 2026-04-26 16:38 | 10.38704 | 10.24230 | 32798 ft | 487 kts | 62° |
| 2026-04-26 16:39 | 10.41918 | 10.30303 | 32796 ft | 487 kts | 62° |
| 2026-04-26 16:39 | 10.45132 | 10.36381 | 32796 ft | 487 kts | 62° |
| 2026-04-26 16:40 | 10.48340 | 10.42450 | 32796 ft | 488 kts | 62° |
| 2026-04-26 16:40 | 10.51548 | 10.48523 | 32797 ft | 488 kts | 62° |
| 2026-04-26 16:41 | 10.54762 | 10.54612 | 32795 ft | 488 kts | 62° |
| 2026-04-26 16:41 | 10.57953 | 10.60659 | 32793 ft | 488 kts | 62° |
| 2026-04-26 16:42 | 10.61167 | 10.66751 | 32798 ft | 489 kts | 62° |
| 2026-04-26 16:42 | 10.64380 | 10.72840 | 32797 ft | 489 kts | 62° |
| 2026-04-26 16:43 | 10.67595 | 10.78938 | 32797 ft | 489 kts | 62° |
| 2026-04-26 16:43 | 10.70808 | 10.85036 | 32797 ft | 489 kts | 62° |
| 2026-04-26 16:44 | 10.74006 | 10.91123 | 32797 ft | 490 kts | 62° |
| 2026-04-26 16:44 | 10.77214 | 10.97261 | 32798 ft | 490 kts | 62° |
| 2026-04-26 16:45 | 10.80407 | 11.03380 | 32798 ft | 490 kts | 62° |
| 2026-04-26 16:45 | 10.83606 | 11.09512 | 32798 ft | 490 kts | 62° |
| 2026-04-26 16:46 | 10.86784 | 11.15604 | 32800 ft | 490 kts | 62° |
| 2026-04-26 16:46 | 10.89980 | 11.21735 | 32801 ft | 490 kts | 62° |
| 2026-04-26 16:47 | 10.93178 | 11.27873 | 32805 ft | 490 kts | 62° |
| 2026-04-26 16:47 | 10.96373 | 11.34008 | 32804 ft | 490 kts | 62° |
| 2026-04-26 16:48 | 10.99549 | 11.40110 | 32813 ft | 490 kts | 62° |
| 2026-04-26 16:48 | 11.02738 | 11.46243 | 32824 ft | 490 kts | 62° |
| 2026-04-26 16:49 | 11.05933 | 11.52389 | 32825 ft | 491 kts | 62° |
| 2026-04-26 16:49 | 11.09126 | 11.58532 | 32835 ft | 491 kts | 62° |
| 2026-04-26 16:50 | 11.12319 | 11.64684 | 32833 ft | 491 kts | 62° |
| 2026-04-26 16:50 | 11.15505 | 11.70825 | 32843 ft | 491 kts | 62° |
| 2026-04-26 16:51 | 11.18694 | 11.76976 | 32845 ft | 491 kts | 62° |
| 2026-04-26 16:51 | 11.21855 | 11.83077 | 32844 ft | 490 kts | 62° |
| 2026-04-26 16:52 | 11.23983 | 11.87186 | 32846 ft | 490 kts | 62° |
| 2026-04-26 16:52 | 11.28208 | 11.95347 | 32846 ft | 489 kts | 62° |
| 2026-04-26 16:53 | 11.31377 | 12.01473 | 32848 ft | 488 kts | 62° |
| 2026-04-26 16:53 | 11.34544 | 12.07600 | 32842 ft | 488 kts | 62° |
| 2026-04-26 16:54 | 11.37711 | 12.13728 | 32839 ft | 488 kts | 62° |
| 2026-04-26 16:54 | 11.40869 | 12.19846 | 32835 ft | 488 kts | 62° |
| 2026-04-26 16:55 | 11.44014 | 12.25942 | 32835 ft | 488 kts | 62° |
| 2026-04-26 16:55 | 11.47174 | 12.32072 | 32825 ft | 489 kts | 62° |
| 2026-04-26 16:56 | 11.51408 | 12.40286 | 32825 ft | 488 kts | 62° |
| 2026-04-26 16:57 | 11.54563 | 12.46411 | 32821 ft | 488 kts | 62° |
| 2026-04-26 16:57 | 11.59275 | 12.55573 | 32820 ft | 488 kts | 62° |
| 2026-04-26 16:58 | 11.61893 | 12.60666 | 32816 ft | 488 kts | 62° |
| 2026-04-26 16:59 | 11.67156 | 12.70912 | 32813 ft | 488 kts | 62° |
| 2026-04-26 17:00 | 11.73433 | 12.83143 | 32814 ft | 488 kts | 62° |
| 2026-04-26 17:00 | 11.78160 | 12.92369 | 32807 ft | 488 kts | 62° |
| 2026-04-26 17:01 | 11.81304 | 12.98508 | 32811 ft | 488 kts | 62° |
| 2026-04-26 17:01 | 11.84456 | 13.04667 | 32812 ft | 489 kts | 62° |
| 2026-04-26 17:02 | 11.87097 | 13.11042 | 32817 ft | 489 kts | 78° |
| 2026-04-26 17:02 | 11.88232 | 13.17894 | 32809 ft | 490 kts | 82° |
| 2026-04-26 17:03 | 11.89236 | 13.24780 | 32811 ft | 491 kts | 82° |
| 2026-04-26 17:03 | 11.90232 | 13.31684 | 32812 ft | 492 kts | 82° |
| 2026-04-26 17:04 | 11.91228 | 13.38611 | 32803 ft | 493 kts | 82° |
| 2026-04-26 17:04 | 11.91722 | 13.42056 | 32606 ft | 486 kts | 82° |
| 2026-04-26 17:04 | 11.92208 | 13.45440 | 32069 ft | 481 kts | 82° |
| 2026-04-26 17:05 | 11.92688 | 13.48795 | 31188 ft | 486 kts | 82° |
| 2026-04-26 17:05 | 11.93178 | 13.52221 | 30324 ft | 490 kts | 82° |
| 2026-04-26 17:05 | 11.93679 | 13.55724 | 29387 ft | 492 kts | 83° |
| 2026-04-26 17:05 | 11.94165 | 13.59136 | 28563 ft | 492 kts | 82° |
| 2026-04-26 17:06 | 11.94658 | 13.62581 | 27875 ft | 487 kts | 82° |
| 2026-04-26 17:06 | 11.95144 | 13.65989 | 27192 ft | 483 kts | 82° |
| 2026-04-26 17:06 | 11.95625 | 13.69365 | 26520 ft | 479 kts | 82° |
| 2026-04-26 17:06 | 11.96104 | 13.72726 | 25847 ft | 476 kts | 82° |
| 2026-04-26 17:07 | 11.96577 | 13.76057 | 25182 ft | 469 kts | 82° |
| 2026-04-26 17:07 | 11.97036 | 13.79279 | 24558 ft | 450 kts | 82° |
| 2026-04-26 17:07 | 11.97481 | 13.82416 | 23962 ft | 443 kts | 82° |
| 2026-04-26 17:07 | 11.97923 | 13.85535 | 23328 ft | 444 kts | 82° |
| 2026-04-26 17:08 | 11.98364 | 13.88648 | 22639 ft | 442 kts | 82° |
| 2026-04-26 17:08 | 11.98802 | 13.91742 | 22002 ft | 438 kts | 82° |
| 2026-04-26 17:08 | 11.99236 | 13.94812 | 21366 ft | 435 kts | 82° |
| 2026-04-26 17:08 | 11.99668 | 13.97866 | 20762 ft | 432 kts | 82° |
| 2026-04-26 17:09 | 12.00095 | 14.00893 | 20137 ft | 429 kts | 81° |
| 2026-04-26 17:09 | 12.00376 | 14.02883 | 19707 ft | 427 kts | 81° |
| 2026-04-26 17:09 | 12.00940 | 14.06881 | 18893 ft | 423 kts | 81° |
| 2026-04-26 17:09 | 12.01355 | 14.09830 | 18329 ft | 418 kts | 81° |
| 2026-04-26 17:10 | 12.01766 | 14.12747 | 17897 ft | 410 kts | 81° |
| 2026-04-26 17:10 | 12.02169 | 14.15610 | 17253 ft | 406 kts | 81° |
| 2026-04-26 17:10 | 12.02564 | 14.18425 | 16350 ft | 395 kts | 81° |
| 2026-04-26 17:10 | 12.02945 | 14.21141 | 15674 ft | 377 kts | 81° |
| 2026-04-26 17:11 | 12.03311 | 14.23749 | 15145 ft | 368 kts | 81° |
| 2026-04-26 17:11 | 12.03670 | 14.26305 | 14594 ft | 367 kts | 80° |
| 2026-04-26 17:11 | 12.04033 | 14.28885 | 14004 ft | 367 kts | 80° |
| 2026-04-26 17:11 | 12.04395 | 14.31460 | 13382 ft | 367 kts | 81° |
| 2026-04-26 17:12 | 12.05114 | 14.36593 | 12221 ft | 362 kts | 81° |
| 2026-04-26 17:12 | 12.05469 | 14.39128 | 11660 ft | 359 kts | 81° |
| 2026-04-26 17:13 | 12.06167 | 14.44130 | 10561 ft | 353 kts | 81° |
| 2026-04-26 17:13 | 12.06508 | 14.46574 | 10375 ft | 339 kts | 81° |
| 2026-04-26 17:13 | 12.07141 | 14.51126 | 10174 ft | 310 kts | 81° |
| 2026-04-26 17:14 | 12.07439 | 14.53264 | 10035 ft | 298 kts | 81° |
| 2026-04-26 17:14 | 12.08007 | 14.57343 | 9496 ft | 287 kts | 81° |
| 2026-04-26 17:14 | 12.08288 | 14.59358 | 9156 ft | 284 kts | 81° |
| 2026-04-26 17:15 | 12.08661 | 14.63273 | 8672 ft | 273 kts | 95° |
| 2026-04-26 17:15 | 12.08188 | 14.65124 | 8516 ft | 266 kts | 107° |
| 2026-04-26 17:15 | 12.07549 | 14.66884 | 8210 ft | 264 kts | 108° |
| 2026-04-26 17:16 | 12.06892 | 14.68629 | 7909 ft | 261 kts | 109° |
| 2026-04-26 17:16 | 12.06244 | 14.70357 | 7570 ft | 260 kts | 109° |
| 2026-04-26 17:16 | 12.05601 | 14.72083 | 7225 ft | 260 kts | 109° |
| 2026-04-26 17:16 | 12.04963 | 14.73805 | 6916 ft | 258 kts | 109° |
| 2026-04-26 17:17 | 12.04331 | 14.75515 | 6622 ft | 256 kts | 109° |
| 2026-04-26 17:17 | 12.03705 | 14.77214 | 6295 ft | 255 kts | 109° |
| 2026-04-26 17:17 | 12.03080 | 14.78910 | 5974 ft | 254 kts | 109° |
| 2026-04-26 17:17 | 12.02459 | 14.80595 | 5653 ft | 253 kts | 109° |
| 2026-04-26 17:18 | 12.01837 | 14.82286 | 5313 ft | 253 kts | 109° |
| 2026-04-26 17:18 | 12.01224 | 14.83950 | 5071 ft | 248 kts | 109° |
| 2026-04-26 17:18 | 12.00614 | 14.85605 | 4703 ft | 250 kts | 109° |
| 2026-04-26 17:18 | 12.00001 | 14.87270 | 4374 ft | 250 kts | 109° |
| 2026-04-26 17:19 | 12.00174 | 14.90596 | 3678 ft | 248 kts | 51° |
| 2026-04-26 17:19 | 12.01430 | 14.91716 | 3595 ft | 237 kts | 39° |
| 2026-04-26 17:19 | 12.02691 | 14.92713 | 3484 ft | 223 kts | 41° |
| 2026-04-26 17:20 | 12.03861 | 14.93720 | 3291 ft | 218 kts | 43° |
| 2026-04-26 17:20 | 12.04619 | 14.94418 | 3127 ft | 216 kts | 44° |
| 2026-04-26 17:20 | 12.06028 | 14.95761 | 2983 ft | 200 kts | 42° |
| 2026-04-26 17:20 | 12.06991 | 14.96693 | 2977 ft | 180 kts | 51° |
| 2026-04-26 17:21 | 12.07815 | 14.97585 | 2852 ft | 171 kts | 48° |
| 2026-04-26 17:21 | 12.08655 | 14.98453 | 2597 ft | 165 kts | 47° |
| 2026-04-26 17:21 | 12.09461 | 14.99275 | 2215 ft | 163 kts | 45° |
| 2026-04-26 17:21 | 12.10302 | 15.00050 | 1856 ft | 158 kts | 49° |
| 2026-04-26 17:22 | 12.11010 | 15.00883 | 1540 ft | 154 kts | 57° |
| 2026-04-26 17:22 | 12.11729 | 15.01691 | 1260 ft | 152 kts | 50° |
| 2026-04-26 17:22 | 12.12467 | 15.02443 | 1015 ft | 147 kts | 53° |
| 2026-04-26 17:22 | 12.13085 | 15.03113 | 989 ft | 83 kts | 42° |
| 2026-04-26 17:23 | 12.13331 | 15.03376 | 986 ft | 23 kts | 70° |
| 2026-04-26 17:23 | 12.13311 | 15.03414 | 991 ft | 4 kts | 140° |
| 2026-04-26 17:23 | 12.13291 | 15.03430 | 985 ft | 3 kts | 141° |
| 2026-04-26 17:23 | 12.13272 | 15.03446 | 984 ft | 5 kts | 139° |
| 2026-04-26 17:24 | 12.13231 | 15.03477 | 992 ft | 9 kts | 149° |
| 2026-04-26 17:24 | 12.13184 | 15.03468 | 986 ft | 8 kts | 213° |
| 2026-04-26 17:24 | 12.13139 | 15.03419 | 991 ft | 10 kts | 229° |
| 2026-04-26 17:24 | 12.13093 | 15.03371 | 992 ft | 9 kts | 226° |
| 2026-04-26 17:25 | 12.13049 | 15.03325 | 992 ft | 10 kts | 226° |
| 2026-04-26 17:25 | 12.12996 | 15.03276 | 983 ft | 8 kts | 210° |
| 2026-04-26 17:25 | 12.12956 | 15.03288 | 990 ft | 6 kts | 145° |
| 2026-04-26 17:25 | 12.12938 | 15.03304 | 987 ft | 0 kts | 140° |